sensor_id;sensor_type;location;lat;lon;timestamp;P1;durP1;ratioP1;P2;durP2;ratioP2
8737;SDS011;4405;49.272;8.590;2023-06-22T00:00:34;5.40;;;4.90;;
8737;SDS011;4405;49.272;8.590;2023-06-22T00:03:00;5.40;;;5.03;;
8737;SDS011;4405;49.272;8.590;2023-06-22T00:05:27;5.63;;;5.23;;
8737;SDS011;4405;49.272;8.590;2023-06-22T00:07:53;5.67;;;5.13;;
8737;SDS011;4405;49.272;8.590;2023-06-22T00:10:19;5.83;;;5.33;;
8737;SDS011;4405;49.272;8.590;2023-06-22T00:12:46;5.27;;;4.73;;
8737;SDS011;4405;49.272;8.590;2023-06-22T00:15:12;5.80;;;5.40;;
8737;SDS011;4405;49.272;8.590;2023-06-22T00:17:40;5.50;;;5.10;;
8737;SDS011;4405;49.272;8.590;2023-06-22T00:20:06;5.90;;;5.47;;
8737;SDS011;4405;49.272;8.590;2023-06-22T00:22:35;6.00;;;5.50;;
8737;SDS011;4405;49.272;8.590;2023-06-22T00:25:04;5.10;;;4.60;;
8737;SDS011;4405;49.272;8.590;2023-06-22T00:27:30;5.60;;;5.20;;
8737;SDS011;4405;49.272;8.590;2023-06-22T00:29:57;5.97;;;5.47;;
8737;SDS011;4405;49.272;8.590;2023-06-22T00:32:23;5.73;;;5.13;;
8737;SDS011;4405;49.272;8.590;2023-06-22T00:34:51;5.40;;;5.00;;
8737;SDS011;4405;49.272;8.590;2023-06-22T00:37:17;5.33;;;4.93;;
8737;SDS011;4405;49.272;8.590;2023-06-22T00:39:44;6.20;;;5.70;;
8737;SDS011;4405;49.272;8.590;2023-06-22T00:42:10;5.30;;;4.90;;
8737;SDS011;4405;49.272;8.590;2023-06-22T00:44:36;6.30;;;5.57;;
8737;SDS011;4405;49.272;8.590;2023-06-22T00:47:03;5.30;;;4.83;;
8737;SDS011;4405;49.272;8.590;2023-06-22T00:49:29;5.50;;;4.90;;
8737;SDS011;4405;49.272;8.590;2023-06-22T00:51:58;5.87;;;5.37;;
8737;SDS011;4405;49.272;8.590;2023-06-22T00:54:24;7.07;;;5.73;;
8737;SDS011;4405;49.272;8.590;2023-06-22T00:56:51;8.70;;;6.53;;
8737;SDS011;4405;49.272;8.590;2023-06-22T00:59:19;8.33;;;6.70;;
8737;SDS011;4405;49.272;8.590;2023-06-22T01:01:45;12.87;;;6.80;;
8737;SDS011;4405;49.272;8.590;2023-06-22T01:04:12;9.17;;;6.57;;
8737;SDS011;4405;49.272;8.590;2023-06-22T01:06:50;8.97;;;6.47;;
8737;SDS011;4405;49.272;8.590;2023-06-22T01:09:21;7.20;;;6.50;;
8737;SDS011;4405;49.272;8.590;2023-06-22T01:11:50;7.53;;;6.63;;
8737;SDS011;4405;49.272;8.590;2023-06-22T01:14:18;7.90;;;7.00;;
8737;SDS011;4405;49.272;8.590;2023-06-22T01:16:47;7.57;;;6.93;;
8737;SDS011;4405;49.272;8.590;2023-06-22T01:19:20;7.60;;;6.40;;
8737;SDS011;4405;49.272;8.590;2023-06-22T01:21:48;9.67;;;6.83;;
8737;SDS011;4405;49.272;8.590;2023-06-22T01:24:17;7.50;;;6.90;;
8737;SDS011;4405;49.272;8.590;2023-06-22T01:26:51;8.00;;;7.20;;
8737;SDS011;4405;49.272;8.590;2023-06-22T01:29:21;7.73;;;6.60;;
8737;SDS011;4405;49.272;8.590;2023-06-22T01:31:48;7.87;;;7.03;;
8737;SDS011;4405;49.272;8.590;2023-06-22T01:34:16;7.70;;;6.87;;
8737;SDS011;4405;49.272;8.590;2023-06-22T01:36:42;8.33;;;6.80;;
8737;SDS011;4405;49.272;8.590;2023-06-22T01:39:09;7.83;;;7.00;;
8737;SDS011;4405;49.272;8.590;2023-06-22T01:41:37;8.23;;;7.40;;
8737;SDS011;4405;49.272;8.590;2023-06-22T01:44:04;8.00;;;7.20;;
8737;SDS011;4405;49.272;8.590;2023-06-22T01:46:32;8.80;;;6.80;;
8737;SDS011;4405;49.272;8.590;2023-06-22T01:48:59;7.60;;;6.90;;
8737;SDS011;4405;49.272;8.590;2023-06-22T01:51:25;7.77;;;7.20;;
8737;SDS011;4405;49.272;8.590;2023-06-22T01:53:51;7.57;;;6.97;;
8737;SDS011;4405;49.272;8.590;2023-06-22T01:56:18;7.40;;;6.70;;
8737;SDS011;4405;49.272;8.590;2023-06-22T01:58:46;7.57;;;6.67;;
8737;SDS011;4405;49.272;8.590;2023-06-22T02:01:14;8.20;;;7.40;;
8737;SDS011;4405;49.272;8.590;2023-06-22T02:03:50;8.20;;;6.97;;
8737;SDS011;4405;49.272;8.590;2023-06-22T02:06:20;9.27;;;8.23;;
8737;SDS011;4405;49.272;8.590;2023-06-22T02:08:51;10.83;;;7.77;;
8737;SDS011;4405;49.272;8.590;2023-06-22T02:11:20;8.90;;;8.10;;
8737;SDS011;4405;49.272;8.590;2023-06-22T02:13:46;8.00;;;7.30;;
8737;SDS011;4405;49.272;8.590;2023-06-22T02:16:14;8.40;;;7.77;;
8737;SDS011;4405;49.272;8.590;2023-06-22T02:18:45;7.87;;;7.27;;
8737;SDS011;4405;49.272;8.590;2023-06-22T02:21:13;8.50;;;7.80;;
8737;SDS011;4405;49.272;8.590;2023-06-22T02:23:39;8.37;;;7.57;;
8737;SDS011;4405;49.272;8.590;2023-06-22T02:26:05;8.07;;;7.07;;
8737;SDS011;4405;49.272;8.590;2023-06-22T02:28:32;8.87;;;8.17;;
8737;SDS011;4405;49.272;8.590;2023-06-22T02:30:58;8.77;;;8.00;;
8737;SDS011;4405;49.272;8.590;2023-06-22T02:33:24;9.20;;;8.37;;
8737;SDS011;4405;49.272;8.590;2023-06-22T02:35:51;8.70;;;8.00;;
8737;SDS011;4405;49.272;8.590;2023-06-22T02:38:19;8.87;;;8.00;;
8737;SDS011;4405;49.272;8.590;2023-06-22T02:40:45;8.73;;;7.90;;
8737;SDS011;4405;49.272;8.590;2023-06-22T02:43:12;8.20;;;7.40;;
8737;SDS011;4405;49.272;8.590;2023-06-22T02:45:38;10.13;;;9.13;;
8737;SDS011;4405;49.272;8.590;2023-06-22T02:48:04;9.03;;;8.13;;
8737;SDS011;4405;49.272;8.590;2023-06-22T02:50:31;9.30;;;8.37;;
8737;SDS011;4405;49.272;8.590;2023-06-22T02:52:57;10.03;;;8.27;;
8737;SDS011;4405;49.272;8.590;2023-06-22T02:55:25;11.73;;;8.27;;
8737;SDS011;4405;49.272;8.590;2023-06-22T02:57:52;12.53;;;8.83;;
8737;SDS011;4405;49.272;8.590;2023-06-22T03:00:18;9.57;;;8.57;;
8737;SDS011;4405;49.272;8.590;2023-06-22T03:02:45;10.97;;;9.10;;
8737;SDS011;4405;49.272;8.590;2023-06-22T03:05:11;10.57;;;8.60;;
8737;SDS011;4405;49.272;8.590;2023-06-22T03:07:39;8.93;;;8.13;;
8737;SDS011;4405;49.272;8.590;2023-06-22T03:10:07;9.50;;;8.37;;
8737;SDS011;4405;49.272;8.590;2023-06-22T03:12:35;9.50;;;8.50;;
8737;SDS011;4405;49.272;8.590;2023-06-22T03:15:02;9.97;;;8.97;;
8737;SDS011;4405;49.272;8.590;2023-06-22T03:17:28;9.03;;;8.23;;
8737;SDS011;4405;49.272;8.590;2023-06-22T03:19:54;9.00;;;8.20;;
8737;SDS011;4405;49.272;8.590;2023-06-22T03:22:21;11.03;;;8.43;;
8737;SDS011;4405;49.272;8.590;2023-06-22T03:24:47;11.87;;;9.07;;
8737;SDS011;4405;49.272;8.590;2023-06-22T03:27:13;10.33;;;9.17;;
8737;SDS011;4405;49.272;8.590;2023-06-22T03:29:41;11.43;;;8.90;;
8737;SDS011;4405;49.272;8.590;2023-06-22T03:32:08;10.10;;;9.20;;
8737;SDS011;4405;49.272;8.590;2023-06-22T03:34:34;10.70;;;8.37;;
8737;SDS011;4405;49.272;8.590;2023-06-22T03:37:02;9.47;;;8.57;;
8737;SDS011;4405;49.272;8.590;2023-06-22T03:39:28;11.30;;;8.53;;
8737;SDS011;4405;49.272;8.590;2023-06-22T03:41:54;8.60;;;7.80;;
8737;SDS011;4405;49.272;8.590;2023-06-22T03:44:21;8.57;;;7.50;;
8737;SDS011;4405;49.272;8.590;2023-06-22T03:46:48;8.60;;;7.70;;
8737;SDS011;4405;49.272;8.590;2023-06-22T03:49:15;8.03;;;7.23;;
8737;SDS011;4405;49.272;8.590;2023-06-22T03:51:41;9.20;;;7.60;;
8737;SDS011;4405;49.272;8.590;2023-06-22T03:54:07;10.07;;;8.13;;
8737;SDS011;4405;49.272;8.590;2023-06-22T03:56:34;8.60;;;7.63;;
8737;SDS011;4405;49.272;8.590;2023-06-22T03:59:00;10.47;;;7.63;;
8737;SDS011;4405;49.272;8.590;2023-06-22T04:01:26;7.57;;;6.90;;
8737;SDS011;4405;49.272;8.590;2023-06-22T04:03:54;8.23;;;7.40;;
8737;SDS011;4405;49.272;8.590;2023-06-22T04:06:20;11.60;;;7.30;;
8737;SDS011;4405;49.272;8.590;2023-06-22T04:08:47;8.13;;;7.43;;
8737;SDS011;4405;49.272;8.590;2023-06-22T04:11:15;7.80;;;7.13;;
8737;SDS011;4405;49.272;8.590;2023-06-22T04:13:42;7.87;;;7.17;;
8737;SDS011;4405;49.272;8.590;2023-06-22T04:16:08;8.00;;;7.30;;
8737;SDS011;4405;49.272;8.590;2023-06-22T04:18:35;8.47;;;7.57;;
8737;SDS011;4405;49.272;8.590;2023-06-22T04:21:02;10.00;;;7.10;;
8737;SDS011;4405;49.272;8.590;2023-06-22T04:23:29;8.20;;;7.40;;
8737;SDS011;4405;49.272;8.590;2023-06-22T04:25:55;7.20;;;6.63;;
8737;SDS011;4405;49.272;8.590;2023-06-22T04:28:22;7.90;;;7.07;;
8737;SDS011;4405;49.272;8.590;2023-06-22T04:30:49;9.33;;;7.03;;
8737;SDS011;4405;49.272;8.590;2023-06-22T04:33:16;8.90;;;6.63;;
8737;SDS011;4405;49.272;8.590;2023-06-22T04:35:44;7.13;;;6.63;;
8737;SDS011;4405;49.272;8.590;2023-06-22T04:38:12;7.17;;;6.53;;
8737;SDS011;4405;49.272;8.590;2023-06-22T04:40:39;7.17;;;6.50;;
8737;SDS011;4405;49.272;8.590;2023-06-22T04:43:05;7.50;;;6.83;;
8737;SDS011;4405;49.272;8.590;2023-06-22T04:45:32;8.33;;;6.87;;
8737;SDS011;4405;49.272;8.590;2023-06-22T04:47:58;7.63;;;6.80;;
8737;SDS011;4405;49.272;8.590;2023-06-22T04:50:25;8.43;;;7.53;;
8737;SDS011;4405;49.272;8.590;2023-06-22T04:52:51;7.67;;;7.07;;
8737;SDS011;4405;49.272;8.590;2023-06-22T04:55:19;7.67;;;6.80;;
8737;SDS011;4405;49.272;8.590;2023-06-22T04:57:45;7.70;;;7.00;;
8737;SDS011;4405;49.272;8.590;2023-06-22T05:00:14;7.90;;;6.80;;
8737;SDS011;4405;49.272;8.590;2023-06-22T05:02:42;7.77;;;6.77;;
8737;SDS011;4405;49.272;8.590;2023-06-22T05:05:08;8.37;;;7.20;;
8737;SDS011;4405;49.272;8.590;2023-06-22T05:07:38;7.73;;;6.80;;
8737;SDS011;4405;49.272;8.590;2023-06-22T05:10:08;10.27;;;6.80;;
8737;SDS011;4405;49.272;8.590;2023-06-22T05:12:36;9.07;;;7.27;;
8737;SDS011;4405;49.272;8.590;2023-06-22T05:15:03;7.40;;;6.73;;
8737;SDS011;4405;49.272;8.590;2023-06-22T05:17:29;11.47;;;6.83;;
8737;SDS011;4405;49.272;8.590;2023-06-22T05:19:55;8.00;;;7.30;;
8737;SDS011;4405;49.272;8.590;2023-06-22T05:22:22;7.40;;;6.70;;
8737;SDS011;4405;49.272;8.590;2023-06-22T05:24:48;10.43;;;6.93;;
8737;SDS011;4405;49.272;8.590;2023-06-22T05:27:14;7.90;;;7.10;;
8737;SDS011;4405;49.272;8.590;2023-06-22T05:29:42;8.40;;;7.03;;
8737;SDS011;4405;49.272;8.590;2023-06-22T05:32:08;8.43;;;7.67;;
8737;SDS011;4405;49.272;8.590;2023-06-22T05:34:35;7.70;;;7.00;;
8737;SDS011;4405;49.272;8.590;2023-06-22T05:37:01;7.93;;;7.13;;
8737;SDS011;4405;49.272;8.590;2023-06-22T05:39:27;7.63;;;6.93;;
8737;SDS011;4405;49.272;8.590;2023-06-22T05:41:54;7.67;;;6.93;;
8737;SDS011;4405;49.272;8.590;2023-06-22T05:44:20;8.27;;;7.40;;
8737;SDS011;4405;49.272;8.590;2023-06-22T05:46:48;7.53;;;6.87;;
8737;SDS011;4405;49.272;8.590;2023-06-22T05:49:15;7.57;;;6.87;;
8737;SDS011;4405;49.272;8.590;2023-06-22T05:51:41;7.40;;;6.90;;
8737;SDS011;4405;49.272;8.590;2023-06-22T05:54:07;8.33;;;7.53;;
8737;SDS011;4405;49.272;8.590;2023-06-22T05:56:34;7.27;;;6.57;;
8737;SDS011;4405;49.272;8.590;2023-06-22T05:59:00;8.03;;;7.33;;
8737;SDS011;4405;49.272;8.590;2023-06-22T06:01:26;8.30;;;7.20;;
8737;SDS011;4405;49.272;8.590;2023-06-22T06:03:55;10.30;;;7.37;;
8737;SDS011;4405;49.272;8.590;2023-06-22T06:06:21;7.80;;;7.10;;
8737;SDS011;4405;49.272;8.590;2023-06-22T06:08:53;8.30;;;7.40;;
8737;SDS011;4405;49.272;8.590;2023-06-22T06:11:21;8.20;;;7.50;;
8737;SDS011;4405;49.272;8.590;2023-06-22T06:13:47;8.40;;;7.53;;
8737;SDS011;4405;49.272;8.590;2023-06-22T06:16:13;7.23;;;6.67;;
8737;SDS011;4405;49.272;8.590;2023-06-22T06:18:40;8.07;;;7.27;;
8737;SDS011;4405;49.272;8.590;2023-06-22T06:21:07;7.60;;;6.80;;
8737;SDS011;4405;49.272;8.590;2023-06-22T06:23:34;8.67;;;6.63;;
8737;SDS011;4405;49.272;8.590;2023-06-22T06:26:00;10.17;;;7.40;;
8737;SDS011;4405;49.272;8.590;2023-06-22T06:28:27;7.67;;;6.87;;
8737;SDS011;4405;49.272;8.590;2023-06-22T06:30:53;8.17;;;7.43;;
8737;SDS011;4405;49.272;8.590;2023-06-22T06:33:19;9.70;;;7.90;;
8737;SDS011;4405;49.272;8.590;2023-06-22T06:35:46;8.40;;;7.67;;
8737;SDS011;4405;49.272;8.590;2023-06-22T06:38:14;7.73;;;7.03;;
8737;SDS011;4405;49.272;8.590;2023-06-22T06:40:40;10.37;;;7.37;;
8737;SDS011;4405;49.272;8.590;2023-06-22T06:43:06;8.13;;;7.40;;
8737;SDS011;4405;49.272;8.590;2023-06-22T06:45:33;7.93;;;6.97;;
8737;SDS011;4405;49.272;8.590;2023-06-22T06:47:59;7.17;;;6.60;;
8737;SDS011;4405;49.272;8.590;2023-06-22T06:50:26;9.50;;;7.60;;
8737;SDS011;4405;49.272;8.590;2023-06-22T06:52:52;8.03;;;7.30;;
8737;SDS011;4405;49.272;8.590;2023-06-22T06:55:20;7.50;;;6.60;;
8737;SDS011;4405;49.272;8.590;2023-06-22T06:57:50;9.73;;;7.20;;
8737;SDS011;4405;49.272;8.590;2023-06-22T07:00:18;9.70;;;7.17;;
8737;SDS011;4405;49.272;8.590;2023-06-22T07:02:44;7.47;;;6.77;;
8737;SDS011;4405;49.272;8.590;2023-06-22T07:05:13;7.10;;;6.50;;
8737;SDS011;4405;49.272;8.590;2023-06-22T07:07:39;8.20;;;6.80;;
8737;SDS011;4405;49.272;8.590;2023-06-22T07:10:06;7.90;;;7.30;;
8737;SDS011;4405;49.272;8.590;2023-06-22T07:12:34;7.37;;;6.73;;
8737;SDS011;4405;49.272;8.590;2023-06-22T07:15:02;7.30;;;6.70;;
8737;SDS011;4405;49.272;8.590;2023-06-22T07:17:28;8.20;;;6.53;;
8737;SDS011;4405;49.272;8.590;2023-06-22T07:19:55;7.50;;;6.60;;
8737;SDS011;4405;49.272;8.590;2023-06-22T07:22:21;8.10;;;7.30;;
8737;SDS011;4405;49.272;8.590;2023-06-22T07:24:48;8.77;;;6.80;;
8737;SDS011;4405;49.272;8.590;2023-06-22T07:27:14;8.63;;;6.27;;
8737;SDS011;4405;49.272;8.590;2023-06-22T07:29:45;8.33;;;7.20;;
8737;SDS011;4405;49.272;8.590;2023-06-22T07:32:11;7.63;;;7.03;;
8737;SDS011;4405;49.272;8.590;2023-06-22T07:34:37;7.97;;;7.20;;
8737;SDS011;4405;49.272;8.590;2023-06-22T07:37:04;9.23;;;6.93;;
8737;SDS011;4405;49.272;8.590;2023-06-22T07:39:30;6.60;;;6.13;;
8737;SDS011;4405;49.272;8.590;2023-06-22T07:41:57;7.23;;;6.63;;
8737;SDS011;4405;49.272;8.590;2023-06-22T07:44:23;7.77;;;7.10;;
8737;SDS011;4405;49.272;8.590;2023-06-22T07:46:51;7.70;;;6.90;;
8737;SDS011;4405;49.272;8.590;2023-06-22T07:49:17;7.80;;;6.37;;
8737;SDS011;4405;49.272;8.590;2023-06-22T07:51:44;8.03;;;7.10;;
8737;SDS011;4405;49.272;8.590;2023-06-22T07:54:10;7.30;;;6.60;;
8737;SDS011;4405;49.272;8.590;2023-06-22T07:56:36;7.13;;;6.53;;
8737;SDS011;4405;49.272;8.590;2023-06-22T07:59:03;6.40;;;5.83;;
8737;SDS011;4405;49.272;8.590;2023-06-22T08:01:29;7.03;;;6.40;;
8737;SDS011;4405;49.272;8.590;2023-06-22T08:03:57;6.80;;;6.20;;
8737;SDS011;4405;49.272;8.590;2023-06-22T08:06:23;8.07;;;6.23;;
8737;SDS011;4405;49.272;8.590;2023-06-22T08:08:50;6.73;;;6.13;;
8737;SDS011;4405;49.272;8.590;2023-06-22T08:11:19;8.27;;;6.23;;
8737;SDS011;4405;49.272;8.590;2023-06-22T08:13:47;7.67;;;6.63;;
8737;SDS011;4405;49.272;8.590;2023-06-22T08:16:13;7.43;;;6.27;;
8737;SDS011;4405;49.272;8.590;2023-06-22T08:18:40;6.80;;;6.30;;
8737;SDS011;4405;49.272;8.590;2023-06-22T08:21:07;8.33;;;5.90;;
8737;SDS011;4405;49.272;8.590;2023-06-22T08:23:34;7.30;;;6.37;;
8737;SDS011;4405;49.272;8.590;2023-06-22T08:26:01;6.87;;;6.27;;
8737;SDS011;4405;49.272;8.590;2023-06-22T08:28:27;6.97;;;6.47;;
8737;SDS011;4405;49.272;8.590;2023-06-22T08:30:53;6.70;;;6.13;;
8737;SDS011;4405;49.272;8.590;2023-06-22T08:33:20;6.60;;;6.07;;
8737;SDS011;4405;49.272;8.590;2023-06-22T08:35:48;6.87;;;6.10;;
8737;SDS011;4405;49.272;8.590;2023-06-22T08:38:16;10.43;;;6.80;;
8737;SDS011;4405;49.272;8.590;2023-06-22T08:40:43;7.07;;;6.47;;
8737;SDS011;4405;49.272;8.590;2023-06-22T08:43:10;8.37;;;6.33;;
8737;SDS011;4405;49.272;8.590;2023-06-22T08:45:36;6.93;;;6.33;;
8737;SDS011;4405;49.272;8.590;2023-06-22T08:48:03;6.97;;;6.33;;
8737;SDS011;4405;49.272;8.590;2023-06-22T08:50:29;7.20;;;6.20;;
8737;SDS011;4405;49.272;8.590;2023-06-22T08:52:55;6.60;;;5.90;;
8737;SDS011;4405;49.272;8.590;2023-06-22T08:55:23;6.57;;;5.97;;
8737;SDS011;4405;49.272;8.590;2023-06-22T08:57:49;6.23;;;5.77;;
8737;SDS011;4405;49.272;8.590;2023-06-22T09:00:16;8.23;;;6.13;;
8737;SDS011;4405;49.272;8.590;2023-06-22T09:02:45;6.40;;;5.70;;
8737;SDS011;4405;49.272;8.590;2023-06-22T09:05:11;7.13;;;5.70;;
8737;SDS011;4405;49.272;8.590;2023-06-22T09:07:38;8.33;;;6.37;;
8737;SDS011;4405;49.272;8.590;2023-06-22T09:10:05;6.43;;;5.83;;
8737;SDS011;4405;49.272;8.590;2023-06-22T09:12:33;7.30;;;6.70;;
8737;SDS011;4405;49.272;8.590;2023-06-22T09:14:59;7.70;;;6.00;;
8737;SDS011;4405;49.272;8.590;2023-06-22T09:17:27;6.83;;;6.17;;
8737;SDS011;4405;49.272;8.590;2023-06-22T09:19:53;6.43;;;5.83;;
8737;SDS011;4405;49.272;8.590;2023-06-22T09:22:20;6.93;;;5.93;;
8737;SDS011;4405;49.272;8.590;2023-06-22T09:24:46;7.83;;;6.03;;
8737;SDS011;4405;49.272;8.590;2023-06-22T09:27:13;6.60;;;5.90;;
8737;SDS011;4405;49.272;8.590;2023-06-22T09:29:41;8.43;;;5.90;;
8737;SDS011;4405;49.272;8.590;2023-06-22T09:32:07;7.93;;;6.00;;
8737;SDS011;4405;49.272;8.590;2023-06-22T09:34:33;6.47;;;5.63;;
8737;SDS011;4405;49.272;8.590;2023-06-22T09:37:00;14.57;;;6.73;;
8737;SDS011;4405;49.272;8.590;2023-06-22T09:39:27;6.93;;;6.17;;
8737;SDS011;4405;49.272;8.590;2023-06-22T09:41:53;6.73;;;6.13;;
8737;SDS011;4405;49.272;8.590;2023-06-22T09:44:19;9.67;;;6.67;;
8737;SDS011;4405;49.272;8.590;2023-06-22T09:46:47;6.30;;;5.70;;
8737;SDS011;4405;49.272;8.590;2023-06-22T09:49:13;6.33;;;5.73;;
8737;SDS011;4405;49.272;8.590;2023-06-22T09:51:40;7.97;;;5.80;;
8737;SDS011;4405;49.272;8.590;2023-06-22T09:54:06;6.83;;;6.07;;
8737;SDS011;4405;49.272;8.590;2023-06-22T09:56:32;6.37;;;5.77;;
8737;SDS011;4405;49.272;8.590;2023-06-22T09:58:59;10.63;;;6.50;;
8737;SDS011;4405;49.272;8.590;2023-06-22T10:01:25;10.73;;;6.43;;
8737;SDS011;4405;49.272;8.590;2023-06-22T10:03:53;6.60;;;5.93;;
8737;SDS011;4405;49.272;8.590;2023-06-22T10:06:21;9.67;;;5.87;;
8737;SDS011;4405;49.272;8.590;2023-06-22T10:08:47;9.50;;;6.50;;
8737;SDS011;4405;49.272;8.590;2023-06-22T10:11:14;6.43;;;5.70;;
8737;SDS011;4405;49.272;8.590;2023-06-22T10:13:40;7.27;;;5.90;;
8737;SDS011;4405;49.272;8.590;2023-06-22T10:16:07;13.17;;;6.63;;
8737;SDS011;4405;49.272;8.590;2023-06-22T10:18:33;6.57;;;5.63;;
8737;SDS011;4405;49.272;8.590;2023-06-22T10:21:01;6.10;;;5.50;;
8737;SDS011;4405;49.272;8.590;2023-06-22T10:23:27;8.37;;;5.80;;
8737;SDS011;4405;49.272;8.590;2023-06-22T10:25:53;12.13;;;6.60;;
8737;SDS011;4405;49.272;8.590;2023-06-22T10:28:22;9.30;;;6.30;;
8737;SDS011;4405;49.272;8.590;2023-06-22T10:30:48;8.17;;;5.73;;
8737;SDS011;4405;49.272;8.590;2023-06-22T10:33:14;8.50;;;5.47;;
8737;SDS011;4405;49.272;8.590;2023-06-22T10:35:41;7.90;;;5.83;;
8737;SDS011;4405;49.272;8.590;2023-06-22T10:38:08;8.43;;;6.03;;
8737;SDS011;4405;49.272;8.590;2023-06-22T10:40:35;7.27;;;6.07;;
8737;SDS011;4405;49.272;8.590;2023-06-22T10:43:01;6.30;;;5.70;;
8737;SDS011;4405;49.272;8.590;2023-06-22T10:45:29;7.03;;;6.10;;
8737;SDS011;4405;49.272;8.590;2023-06-22T10:47:55;7.13;;;5.63;;
8737;SDS011;4405;49.272;8.590;2023-06-22T10:50:21;12.07;;;5.40;;
8737;SDS011;4405;49.272;8.590;2023-06-22T10:52:49;6.57;;;5.87;;
8737;SDS011;4405;49.272;8.590;2023-06-22T10:55:16;7.50;;;5.20;;
8737;SDS011;4405;49.272;8.590;2023-06-22T10:57:43;6.87;;;5.63;;
8737;SDS011;4405;49.272;8.590;2023-06-22T11:00:12;7.40;;;5.83;;
8737;SDS011;4405;49.272;8.590;2023-06-22T11:02:39;8.53;;;5.93;;
8737;SDS011;4405;49.272;8.590;2023-06-22T11:05:06;9.07;;;5.47;;
8737;SDS011;4405;49.272;8.590;2023-06-22T11:07:32;11.50;;;6.17;;
8737;SDS011;4405;49.272;8.590;2023-06-22T11:09:59;7.87;;;5.70;;
8737;SDS011;4405;49.272;8.590;2023-06-22T11:12:26;8.33;;;6.03;;
8737;SDS011;4405;49.272;8.590;2023-06-22T11:14:53;9.33;;;6.23;;
8737;SDS011;4405;49.272;8.590;2023-06-22T11:17:19;8.97;;;5.40;;
8737;SDS011;4405;49.272;8.590;2023-06-22T11:19:45;11.07;;;5.83;;
8737;SDS011;4405;49.272;8.590;2023-06-22T11:22:12;9.33;;;6.23;;
8737;SDS011;4405;49.272;8.590;2023-06-22T11:24:38;8.10;;;5.70;;
8737;SDS011;4405;49.272;8.590;2023-06-22T11:27:05;9.13;;;5.67;;
8737;SDS011;4405;49.272;8.590;2023-06-22T11:29:33;8.77;;;6.20;;
8737;SDS011;4405;49.272;8.590;2023-06-22T11:31:59;6.53;;;5.60;;
8737;SDS011;4405;49.272;8.590;2023-06-22T11:34:25;7.43;;;5.90;;
8737;SDS011;4405;49.272;8.590;2023-06-22T11:36:53;6.53;;;5.93;;
8737;SDS011;4405;49.272;8.590;2023-06-22T11:39:19;8.70;;;6.00;;
8737;SDS011;4405;49.272;8.590;2023-06-22T11:41:45;7.33;;;5.90;;
8737;SDS011;4405;49.272;8.590;2023-06-22T11:44:12;9.13;;;5.90;;
8737;SDS011;4405;49.272;8.590;2023-06-22T11:46:39;9.53;;;5.77;;
8737;SDS011;4405;49.272;8.590;2023-06-22T11:49:06;7.57;;;5.73;;
8737;SDS011;4405;49.272;8.590;2023-06-22T11:51:32;10.27;;;5.90;;
8737;SDS011;4405;49.272;8.590;2023-06-22T11:53:59;6.40;;;5.80;;
8737;SDS011;4405;49.272;8.590;2023-06-22T11:56:25;10.50;;;5.83;;
8737;SDS011;4405;49.272;8.590;2023-06-22T11:58:52;8.50;;;5.80;;
8737;SDS011;4405;49.272;8.590;2023-06-22T12:01:19;8.77;;;5.83;;
8737;SDS011;4405;49.272;8.590;2023-06-22T12:03:47;10.30;;;5.90;;
8737;SDS011;4405;49.272;8.590;2023-06-22T12:06:14;8.60;;;6.27;;
8737;SDS011;4405;49.272;8.590;2023-06-22T12:08:40;8.47;;;5.80;;
8737;SDS011;4405;49.272;8.590;2023-06-22T12:11:06;8.97;;;5.53;;
8737;SDS011;4405;49.272;8.590;2023-06-22T12:13:33;7.27;;;5.67;;
8737;SDS011;4405;49.272;8.590;2023-06-22T12:15:59;8.80;;;6.20;;
8737;SDS011;4405;49.272;8.590;2023-06-22T12:18:25;9.03;;;5.73;;
8737;SDS011;4405;49.272;8.590;2023-06-22T12:20:53;6.60;;;5.73;;
8737;SDS011;4405;49.272;8.590;2023-06-22T12:23:20;8.37;;;6.00;;
8737;SDS011;4405;49.272;8.590;2023-06-22T12:25:46;7.83;;;5.60;;
8737;SDS011;4405;49.272;8.590;2023-06-22T12:28:12;7.00;;;5.43;;
8737;SDS011;4405;49.272;8.590;2023-06-22T12:30:39;7.30;;;5.83;;
8737;SDS011;4405;49.272;8.590;2023-06-22T12:33:05;7.77;;;5.63;;
8737;SDS011;4405;49.272;8.590;2023-06-22T12:35:31;8.80;;;5.43;;
8737;SDS011;4405;49.272;8.590;2023-06-22T12:37:59;10.10;;;6.07;;
8737;SDS011;4405;49.272;8.590;2023-06-22T12:40:25;8.83;;;5.83;;
8737;SDS011;4405;49.272;8.590;2023-06-22T12:42:52;6.67;;;5.60;;
8737;SDS011;4405;49.272;8.590;2023-06-22T12:45:18;9.20;;;6.07;;
8737;SDS011;4405;49.272;8.590;2023-06-22T12:47:46;11.67;;;6.37;;
8737;SDS011;4405;49.272;8.590;2023-06-22T12:50:15;12.20;;;5.80;;
8737;SDS011;4405;49.272;8.590;2023-06-22T12:52:41;10.17;;;5.93;;
8737;SDS011;4405;49.272;8.590;2023-06-22T12:55:09;7.30;;;5.67;;
8737;SDS011;4405;49.272;8.590;2023-06-22T12:57:36;9.63;;;5.97;;
8737;SDS011;4405;49.272;8.590;2023-06-22T13:00:02;9.17;;;5.73;;
8737;SDS011;4405;49.272;8.590;2023-06-22T13:02:30;14.40;;;5.93;;
8737;SDS011;4405;49.272;8.590;2023-06-22T13:04:56;10.40;;;5.87;;
8737;SDS011;4405;49.272;8.590;2023-06-22T13:07:22;9.20;;;6.17;;
8737;SDS011;4405;49.272;8.590;2023-06-22T13:09:49;8.27;;;6.20;;
8737;SDS011;4405;49.272;8.590;2023-06-22T13:12:19;9.93;;;6.40;;
8737;SDS011;4405;49.272;8.590;2023-06-22T13:14:46;8.70;;;6.20;;
8737;SDS011;4405;49.272;8.590;2023-06-22T13:17:12;8.82;;;5.40;;
8737;SDS011;4405;49.272;8.590;2023-06-22T13:19:39;6.67;;;5.80;;
8737;SDS011;4405;49.272;8.590;2023-06-22T13:22:24;9.30;;;6.30;;
8737;SDS011;4405;49.272;8.590;2023-06-22T13:24:51;9.53;;;6.60;;
8737;SDS011;4405;49.272;8.590;2023-06-22T13:27:19;9.90;;;6.33;;
8737;SDS011;4405;49.272;8.590;2023-06-22T13:29:45;8.67;;;6.27;;
8737;SDS011;4405;49.272;8.590;2023-06-22T13:32:11;10.17;;;7.07;;
8737;SDS011;4405;49.272;8.590;2023-06-22T13:34:38;8.07;;;6.53;;
8737;SDS011;4405;49.272;8.590;2023-06-22T13:37:04;9.57;;;6.70;;
8737;SDS011;4405;49.272;8.590;2023-06-22T13:39:31;11.17;;;6.50;;
8737;SDS011;4405;49.272;8.590;2023-06-22T13:41:57;7.23;;;6.47;;
8737;SDS011;4405;49.272;8.590;2023-06-22T13:44:25;9.57;;;6.83;;
8737;SDS011;4405;49.272;8.590;2023-06-22T13:46:53;8.93;;;7.03;;
8737;SDS011;4405;49.272;8.590;2023-06-22T13:49:20;7.67;;;6.23;;
8737;SDS011;4405;49.272;8.590;2023-06-22T13:51:47;9.00;;;6.83;;
8737;SDS011;4405;49.272;8.590;2023-06-22T13:54:13;9.63;;;6.90;;
8737;SDS011;4405;49.272;8.590;2023-06-22T13:56:40;15.90;;;7.27;;
8737;SDS011;4405;49.272;8.590;2023-06-22T13:59:06;10.03;;;6.53;;
8737;SDS011;4405;49.272;8.590;2023-06-22T14:01:35;9.63;;;7.10;;
8737;SDS011;4405;49.272;8.590;2023-06-22T14:04:04;10.03;;;6.63;;
8737;SDS011;4405;49.272;8.590;2023-06-22T14:06:30;12.83;;;6.40;;
8737;SDS011;4405;49.272;8.590;2023-06-22T14:08:56;11.17;;;7.17;;
8737;SDS011;4405;49.272;8.590;2023-06-22T14:11:23;12.57;;;7.00;;
8737;SDS011;4405;49.272;8.590;2023-06-22T14:13:49;8.90;;;6.90;;
8737;SDS011;4405;49.272;8.590;2023-06-22T14:16:15;11.97;;;6.67;;
8737;SDS011;4405;49.272;8.590;2023-06-22T14:18:44;9.50;;;6.73;;
8737;SDS011;4405;49.272;8.590;2023-06-22T14:21:11;11.13;;;6.80;;
8737;SDS011;4405;49.272;8.590;2023-06-22T14:23:37;8.87;;;6.70;;
8737;SDS011;4405;49.272;8.590;2023-06-22T14:26:03;15.67;;;7.40;;
8737;SDS011;4405;49.272;8.590;2023-06-22T14:28:30;11.27;;;7.13;;
8737;SDS011;4405;49.272;8.590;2023-06-22T14:30:56;10.97;;;6.97;;
8737;SDS011;4405;49.272;8.590;2023-06-22T14:33:23;10.93;;;7.10;;
8737;SDS011;4405;49.272;8.590;2023-06-22T14:35:50;12.00;;;6.57;;
8737;SDS011;4405;49.272;8.590;2023-06-22T14:38:17;11.23;;;7.17;;
8737;SDS011;4405;49.272;8.590;2023-06-22T14:40:43;15.87;;;7.57;;
8737;SDS011;4405;49.272;8.590;2023-06-22T14:43:10;10.93;;;7.07;;
8737;SDS011;4405;49.272;8.590;2023-06-22T14:45:36;10.20;;;7.60;;
8737;SDS011;4405;49.272;8.590;2023-06-22T14:48:02;11.77;;;7.30;;
8737;SDS011;4405;49.272;8.590;2023-06-22T14:50:29;11.57;;;6.73;;
8737;SDS011;4405;49.272;8.590;2023-06-22T14:52:56;11.07;;;7.17;;
8737;SDS011;4405;49.272;8.590;2023-06-22T14:55:23;8.60;;;7.10;;
8737;SDS011;4405;49.272;8.590;2023-06-22T14:57:49;10.33;;;6.93;;
8737;SDS011;4405;49.272;8.590;2023-06-22T15:00:16;12.83;;;7.67;;
8737;SDS011;4405;49.272;8.590;2023-06-22T15:02:42;13.00;;;7.30;;
8737;SDS011;4405;49.272;8.590;2023-06-22T15:05:09;9.20;;;7.10;;
8737;SDS011;4405;49.272;8.590;2023-06-22T15:07:35;12.07;;;6.87;;
8737;SDS011;4405;49.272;8.590;2023-06-22T15:10:03;10.87;;;6.90;;